Time;durP1;ratioP1;P1;durP2;ratioP2;P2;SDS_P1;SDS_P2;PMS_P1;PMS_P2;Temp;Humidity;BMP_temperature;BMP_pressure;BME280_temperature;BME280_humidity;BME280_pressure;Samples;Min_cycle;Max_cycle;Signal;HPM_P1;HPM_P2
2023/02/13 00:03:05;;;;;;;257.52;150.52;;;26.00;2201.60;;;;;;4972650;28;20035;-82
2023/02/13 00:05:36;;;;;;;289.35;163.13;;;26.10;2201.60;;;;;;4978729;28;20031;-80
2023/02/13 00:12:18;;;;;;;301.30;172.38;;;26.00;2201.60;;;;;;4980367;28;20029;-82
2023/02/13 01:21:26;;;;;;;324.77;180.00;;;0.90;2201.60;;;;;;5042315;23;20109;-84
2023/02/13 01:31:44;;;;;;;314.83;174.70;;;0.80;2201.60;;;;;;4868750;29;20025;-83
2023/02/13 01:34:53;;;;;;;316.35;175.75;;;0.70;2201.60;;;;;;4910462;29;20036;-84
2023/02/13 01:38:01;;;;;;;353.50;194.90;;;0.80;2201.60;;;;;;4908850;29;20021;-85
2023/02/13 01:41:02;;;;;;;326.65;189.90;;;0.50;2201.60;;;;;;4915373;29;20085;-84
2023/02/13 01:47:42;;;;;;;345.10;184.68;;;0.50;2201.60;;;;;;4906038;29;20112;-81
2023/02/13 01:50:39;;;;;;;334.63;183.88;;;0.60;2201.60;;;;;;4883138;29;20036;-81
2023/02/13 02:03:25;;;;;;;329.50;184.68;;;0.80;2201.60;;;;;;4887061;29;20031;-84
2023/02/13 02:06:30;;;;;;;294.38;174.20;;;0.50;2201.60;;;;;;4840517;29;20037;-85
2023/02/13 02:52:31;;;;;;;135.13;75.75;;;0.10;2201.60;;;;;;4999264;28;20099;-85
2023/02/13 03:31:21;;;;;;;307.58;159.68;;;0.00;2201.60;;;;;;4942948;29;20051;-86
2023/02/13 03:38:07;;;;;;;314.60;164.95;;;0.00;2201.60;;;;;;4904480;29;20063;-85
2023/02/13 03:41:35;;;;;;;298.75;159.38;;;0.00;2201.60;;;;;;4896729;29;20050;-86
2023/02/13 03:52:13;;;;;;;288.35;151.75;;;13.00;2201.60;;;;;;4830191;29;20023;-85
2023/02/13 03:59:23;;;;;;;295.25;153.70;;;13.10;2201.60;;;;;;5030718;23;20098;-85
2023/02/13 04:03:17;;;;;;;269.02;143.35;;;13.00;2201.60;;;;;;5019579;28;20043;-84
2023/02/13 04:06:55;;;;;;;247.82;131.40;;;13.10;2201.60;;;;;;4896176;29;20009;-84
2023/02/13 04:10:25;;;;;;;223.90;122.00;;;13.10;2201.60;;;;;;4848093;29;20030;-83
2023/02/13 04:13:59;;;;;;;202.32;110.72;;;13.00;2201.60;;;;;;4793346;30;20015;-83
2023/02/13 04:24:13;;;;;;;211.05;116.72;;;12.90;2201.60;;;;;;4950234;29;20090;-83
2023/02/13 04:27:40;;;;;;;236.57;123.60;;;13.10;2201.60;;;;;;4949870;29;20071;-83
2023/02/13 04:30:56;;;;;;;228.45;117.35;;;13.00;2201.60;;;;;;4968850;28;20031;-84
2023/02/13 04:33:33;;;;;;;198.88;112.88;;;13.30;2201.60;;;;;;4946254;29;20072;-83
2023/02/13 04:37:03;;;;;;;196.85;109.45;;;13.50;2201.60;;;;;;4990901;28;20011;-84
2023/02/13 04:40:43;;;;;;;199.23;109.47;;;13.40;2201.60;;;;;;4978245;28;20023;-83
2023/02/13 04:44:04;;;;;;;188.88;100.30;;;13.20;2201.60;;;;;;4975822;28;20016;-83
2023/02/13 04:46:38;;;;;;;258.45;136.25;;;13.20;2201.60;;;;;;4957872;28;20058;-84
2023/02/13 04:49:41;;;;;;;206.88;118.15;;;13.40;2201.60;;;;;;4962937;29;20094;-86
2023/02/13 04:52:57;;;;;;;207.45;111.43;;;13.40;2201.60;;;;;;4931164;28;20055;-83
2023/02/13 05:13:23;;;;;;;183.45;105.03;;;13.60;2201.60;;;;;;4906797;29;20030;-86
2023/02/13 05:19:25;;;;;;;205.00;113.07;;;38.50;2201.60;;;;;;4981435;28;20034;-86
2023/02/13 05:26:19;;;;;;;285.77;143.40;;;13.50;2201.60;;;;;;4944138;29;20030;-84
2023/02/13 05:29:56;;;;;;;295.92;158.40;;;13.50;2201.60;;;;;;4888283;29;20033;-85
2023/02/13 05:33:24;;;;;;;289.90;156.93;;;13.50;2201.60;;;;;;4864529;29;20030;-84
2023/02/13 05:39:57;;;;;;;361.37;172.27;;;13.60;2201.60;;;;;;4868921;29;20052;-84
2023/02/13 05:42:59;;;;;;;334.27;159.07;;;38.40;2201.60;;;;;;4853701;29;20025;-84
2023/02/13 05:45:36;;;;;;;311.05;158.07;;;38.50;2201.60;;;;;;4852897;29;20037;-83
2023/02/13 05:49:06;;;;;;;346.48;175.10;;;38.40;2201.60;;;;;;4851779;29;20091;-84
2023/02/13 05:52:19;;;;;;;325.75;165.70;;;38.40;2201.60;;;;;;4823581;29;20066;-84
2023/02/13 05:55:51;;;;;;;366.10;184.55;;;38.40;2201.60;;;;;;4849843;29;20038;-81
2023/02/13 05:59:03;;;;;;;234.90;124.03;;;38.50;2201.60;;;;;;4847202;29;20030;-81
2023/02/13 06:02:18;;;;;;;173.40;95.70;;;38.50;2201.60;;;;;;4891728;29;20085;-84
2023/02/13 06:05:29;;;;;;;172.57;93.97;;;38.50;2201.60;;;;;;4868042;29;20101;-83
2023/02/13 06:08:24;;;;;;;298.33;148.45;;;13.70;2201.60;;;;;;4868053;29;20142;-84
2023/02/13 06:11:33;;;;;;;268.42;142.98;;;13.60;2201.60;;;;;;4871767;29;20089;-83
2023/02/13 06:14:41;;;;;;;288.40;149.90;;;13.50;2201.60;;;;;;4886723;29;20126;-85
2023/02/13 06:30:07;;;;;;;299.27;158.85;;;38.60;2201.60;;;;;;5001241;28;19925;-83
2023/02/13 06:32:42;;;;;;;291.85;154.73;;;38.40;2201.60;;;;;;4982463;28;20039;-83
2023/02/13 06:35:36;;;;;;;267.17;142.98;;;38.40;2201.60;;;;;;4966075;28;20120;-83
2023/02/13 06:44:50;;;;;;;;;;;38.50;2201.60;;;;;;4959481;28;20059;-82
2023/02/13 06:47:27;;;;;;;240.00;131.77;;;38.50;2201.60;;;;;;4944273;29;19926;-82
2023/02/13 06:49:56;;;;;;;303.52;168.57;;;38.50;2201.60;;;;;;4924726;29;20093;-82
2023/02/13 06:52:29;;;;;;;238.13;133.18;;;38.60;2201.60;;;;;;4934818;29;20019;-84
2023/02/13 06:55:13;;;;;;;;;;;38.50;2201.60;;;;;;4945326;29;20043;-82
2023/02/13 06:57:42;;;;;;;271.70;149.00;;;38.50;2201.60;;;;;;4962111;29;19935;-82
2023/02/13 07:00:45;;;;;;;281.05;153.20;;;38.40;2201.60;;;;;;4946843;29;20039;-86
2023/02/13 07:03:49;;;;;;;242.18;135.63;;;13.70;2201.60;;;;;;4961185;29;20019;-84
2023/02/13 07:12:31;;;;;;;226.23;126.90;;;13.50;2201.60;;;;;;4962144;29;20075;-83
2023/02/13 07:15:56;;;;;;;207.82;116.50;;;13.40;2201.60;;;;;;4931133;29;20063;-85
2023/02/13 07:18:54;;;;;;;178.40;105.53;;;13.20;2201.60;;;;;;4946600;29;20044;-83
2023/02/13 07:21:38;;;;;;;219.15;120.05;;;13.00;2201.60;;;;;;4944656;29;20060;-85
2023/02/13 07:34:47;;;;;;;199.25;117.90;;;0.50;2201.60;;;;;;5000197;28;20045;-83
2023/02/13 07:41:34;;;;;;;212.43;124.90;;;0.80;2201.60;;;;;;4991606;28;20050;-83
2023/02/13 07:47:16;;;;;;;134.88;84.53;;;0.90;2201.60;;;;;;5017381;28;20057;-83
2023/02/13 08:16:46;;;;;;;;;;;26.30;2201.60;;;;;;5026993;23;20065;-85
2023/02/13 08:30:11;;;;;;;107.22;65.28;;;51.30;2227.20;;;;;;4958767;28;20059;-82
2023/02/13 08:33:28;;;;;;;107.35;66.38;;;51.50;2227.20;;;;;;4940807;28;20040;-84
2023/02/13 08:40:02;;;;;;;143.88;89.65;;;51.60;2227.20;;;;;;4960394;29;20048;-81
2023/02/13 08:43:13;;;;;;;118.00;68.50;;;51.70;2227.20;;;;;;4927881;29;20026;-85
2023/02/13 08:46:27;;;;;;;105.88;65.80;;;51.80;2227.20;;;;;;4915581;29;20024;-83
2023/02/13 08:53:36;;;;;;;105.95;62.97;;;52.00;2227.20;;;;;;4884615;29;20056;-84
2023/02/13 08:57:20;;;;;;;113.38;68.13;;;52.10;2227.20;;;;;;4811122;29;20039;-84
2023/02/13 09:04:17;;;;;;;97.35;61.28;;;77.10;2227.20;;;;;;4782680;29;19966;-84
2023/02/13 09:07:24;;;;;;;97.30;59.72;;;77.20;2227.20;;;;;;4792875;29;20024;-84
2023/02/13 09:10:26;;;;;;;92.90;58.78;;;77.40;2227.20;;;;;;4792566;30;20078;-84
2023/02/13 09:13:39;;;;;;;95.68;57.33;;;77.50;2227.20;;;;;;4790551;30;20060;-78
2023/02/13 09:16:13;;;;;;;97.70;59.42;;;77.60;2227.20;;;;;;4788311;30;20031;-80
2023/02/13 09:18:42;;;;;;;97.95;58.65;;;77.70;2227.20;;;;;;4820710;29;20039;-80
2023/02/13 09:21:11;;;;;;;102.10;62.97;;;102.50;2227.20;;;;;;4805190;29;20428;-78
2023/02/13 09:24:05;;;;;;;99.78;64.50;;;102.50;2227.20;;;;;;4841949;29;20038;-81
2023/02/13 09:26:55;;;;;;;109.82;68.22;;;102.70;2227.20;;;;;;5004549;23;20047;-82
2023/02/13 09:29:40;;;;;;;97.45;59.70;;;102.80;2227.20;;;;;;4988965;28;20035;-82
2023/02/13 09:32:06;;;;;;;85.45;55.10;;;102.90;2227.20;;;;;;4970456;28;20125;-82
2023/02/13 09:34:33;;;;;;;89.65;53.92;;;103.30;2227.20;;;;;;4958807;28;20103;-81
2023/02/13 09:37:28;;;;;;;84.32;52.13;;;102.40;2227.20;;;;;;4958702;28;20019;-81
2023/02/13 09:39:54;;;;;;;80.35;50.67;;;103.20;2227.20;;;;;;4978000;28;20119;-80
2023/02/13 09:42:24;;;;;;;84.30;53.65;;;103.20;2227.20;;;;;;4981162;28;20018;-81
2023/02/13 09:44:54;;;;;;;86.47;56.08;;;103.30;2227.20;;;;;;4981185;28;20035;-80
2023/02/13 09:47:40;;;;;;;83.40;54.72;;;103.30;2227.20;;;;;;4972505;28;20023;-79
2023/02/13 09:50:34;;;;;;;82.82;52.83;;;128.00;2252.80;;;;;;4984563;28;20027;-80
2023/02/13 09:53:37;;;;;;;77.65;48.53;;;128.20;2252.80;;;;;;4966293;28;20471;-81
2023/02/13 09:56:59;;;;;;;73.03;45.83;;;128.30;2252.80;;;;;;4970260;28;20057;-81
2023/02/13 10:00:10;;;;;;;74.00;46.42;;;128.50;2252.80;;;;;;4976489;28;20039;-82
2023/02/13 10:03:18;;;;;;;61.45;40.92;;;128.60;2252.80;;;;;;4987711;28;20027;-81
2023/02/13 10:06:52;;;;;;;66.45;43.85;;;128.80;2252.80;;;;;;4996111;28;20011;-82
2023/02/13 10:10:37;;;;;;;64.30;43.05;;;128.90;2252.80;;;;;;4993819;28;20015;-82
2023/02/13 10:14:12;;;;;;;64.78;39.55;;;153.60;2252.80;;;;;;4936024;28;20023;-80
2023/02/13 10:21:05;;;;;;;60.00;38.60;;;154.00;2252.80;;;;;;4939349;29;20729;-82
2023/02/13 10:24:19;;;;;;;62.80;39.80;;;154.10;2252.80;;;;;;4936664;29;20012;-82
2023/02/13 10:27:26;;;;;;;80.65;51.97;;;154.30;2252.80;;;;;;4866006;29;1325880;-81
2023/02/13 10:30:35;;;;;;;54.17;34.50;;;154.50;2252.80;;;;;;4937091;29;20043;-80
2023/02/13 10:33:22;;;;;;;54.38;36.08;;;154.50;2252.80;;;;;;4932668;29;20036;-82
2023/02/13 10:36:23;;;;;;;55.03;38.90;;;179.20;2252.80;;;;;;4920877;29;20052;-82
2023/02/13 10:39:06;;;;;;;50.10;34.17;;;179.30;2252.80;;;;;;4936973;29;20063;-81
2023/02/13 10:45:05;;;;;;;55.50;36.80;;;179.50;2252.80;;;;;;4937397;29;20503;-82
2023/02/13 10:48:20;;;;;;;50.95;32.95;;;179.70;2252.80;;;;;;4903355;29;20040;-81
2023/02/13 10:51:17;;;;;;;54.50;39.05;;;179.70;2252.80;;;;;;4910466;28;20039;-80
2023/02/13 10:53:59;;;;;;;44.47;30.02;;;179.90;2252.80;;;;;;4976748;28;20062;-83
2023/02/13 10:56:31;;;;;;;42.72;28.55;;;180.10;2252.80;;;;;;4980779;28;20034;-81
2023/02/13 10:59:28;;;;;;;49.00;33.28;;;180.00;2252.80;;;;;;4972378;28;20103;-81
2023/02/13 11:02:15;;;;;;;62.72;40.85;;;179.80;2252.80;;;;;;4967477;28;20047;-80
2023/02/13 11:04:43;;;;;;;44.33;30.10;;;179.90;2252.80;;;;;;4968843;29;20047;-81
2023/02/13 11:07:16;;;;;;;49.83;32.65;;;179.90;2252.80;;;;;;4955878;29;20024;-83
2023/02/13 11:10:04;;;;;;;40.05;27.77;;;180.00;2252.80;;;;;;4973527;29;20016;-82
2023/02/13 11:12:34;;;;;;;39.38;25.77;;;204.80;2252.80;;;;;;4978842;29;20018;-82
2023/02/13 11:15:06;;;;;;;35.40;23.95;;;205.40;2252.80;;;;;;4979636;29;20024;-83
2023/02/13 11:17:38;;;;;;;26.05;18.73;;;180.10;2252.80;;;;;;4963513;29;20043;-81
2023/02/13 11:20:31;;;;;;;23.83;15.18;;;204.90;2252.80;;;;;;4970182;29;20071;-82
2023/02/13 11:23:14;;;;;;;;;;;204.90;2252.80;;;;;;4966958;29;20082;-80
2023/02/13 11:25:40;;;;;;;24.77;15.53;;;205.10;2252.80;;;;;;4970926;29;20362;-81
2023/02/13 11:28:35;;;;;;;26.05;18.80;;;205.30;2252.80;;;;;;4969407;29;20058;-81
2023/02/13 11:31:44;;;;;;;23.45;17.58;;;205.40;2252.80;;;;;;4977379;29;20031;-82
2023/02/13 11:34:30;;;;;;;30.13;21.23;;;205.40;2252.80;;;;;;4978609;28;20043;-81
2023/02/13 11:37:12;;;;;;;34.03;23.02;;;205.50;2252.80;;;;;;4977676;28;20020;-81
2023/02/13 11:39:40;;;;;;;34.58;21.17;;;230.50;2252.80;;;;;;4966359;29;20032;-81
2023/02/13 11:42:22;;;;;;;29.52;20.33;;;230.70;2252.80;;;;;;4967206;29;20035;-81
2023/02/13 11:44:52;;;;;;;28.08;20.50;;;231.00;2252.80;;;;;;4963568;29;20047;-80
2023/02/13 11:47:34;;;;;;;42.28;25.30;;;230.90;2252.80;;;;;;4964660;29;20138;-80
2023/02/13 11:49:59;;;;;;;35.40;22.45;;;230.80;2252.80;;;;;;4973707;29;20024;-80
2023/02/13 11:52:29;;;;;;;28.38;19.08;;;230.90;2252.80;;;;;;4964083;29;20030;-81
2023/02/13 11:55:53;;;;;;;30.40;20.42;;;231.20;2252.80;;;;;;4969467;29;20067;-81
2023/02/13 11:58:24;;;;;;;24.30;18.05;;;;;;;;;;4966118;29;20039;-82
2023/02/13 12:01:08;;;;;;;25.88;17.40;;;256.40;2252.80;;;;;;4964855;29;20050;-81
2023/02/13 12:03:33;;;;;;;17.85;13.05;;;256.90;2201.60;;;;;;4948362;29;20086;-81
2023/02/13 12:06:14;;;;;;;21.73;15.98;;;256.90;2227.20;;;;;;4965454;29;20027;-80
2023/02/13 12:08:44;;;;;;;23.25;15.25;;;281.90;2150.40;;;;;;4966047;29;20022;-82
2023/02/13 12:11:35;;;;;;;23.30;16.63;;;282.00;2150.40;;;;;;4966172;29;20027;-82
2023/02/13 12:14:02;;;;;;;22.85;15.50;;;282.20;2150.40;;;;;;4965139;28;20090;-82
2023/02/13 12:16:44;;;;;;;34.60;23.98;;;282.40;2099.20;;;;;;4965298;29;20031;-81
2023/02/13 12:19:18;;;;;;;41.07;28.63;;;307.40;2124.80;;;;;;4965895;29;20035;-82
2023/02/13 12:21:47;;;;;;;28.50;19.70;;;307.30;2073.60;;;;;;4973266;29;20280;-81
2023/02/13 12:24:40;;;;;;;34.00;23.50;;;307.30;2073.60;;;;;;4973464;29;20024;-81
2023/02/13 12:27:28;;;;;;;29.92;22.08;;;307.90;2252.80;;;;;;4971680;29;20497;-83
2023/02/13 12:30:36;;;;;;;19.50;14.30;;;308.10;1996.80;;;;;;4963948;29;20126;-81
2023/02/13 12:33:20;;;;;;;21.98;15.95;;;308.10;2022.40;;;;;;4961268;29;20038;-81
2023/02/13 12:35:58;;;;;;;17.10;12.70;;;332.90;2022.40;;;;;;4961291;29;20031;-82
2023/02/13 12:38:52;;;;;;;34.53;25.20;;;308.10;1971.20;;;;;;4965035;29;20031;-82
2023/02/13 12:41:30;;;;;;;29.67;20.13;;;308.10;1996.80;;;;;;4962879;29;20050;-82
2023/02/13 12:44:16;;;;;;;27.55;18.17;;;307.90;1971.20;;;;;;4965434;29;20034;-82
2023/02/13 12:47:15;;;;;;;21.10;15.60;;;332.80;2022.40;;;;;;4965066;29;20035;-83
2023/02/13 12:49:53;;;;;;;67.95;27.35;;;332.90;1996.80;;;;;;4965834;29;20035;-81
2023/02/13 12:52:46;;;;;;;32.78;21.25;;;332.90;1971.20;;;;;;4959840;29;20439;-83
2023/02/13 12:55:12;;;;;;;;;;;333.30;1945.60;;;;;;4947958;29;20039;-81
2023/02/13 12:58:06;;;;;;;34.25;17.88;;;333.20;1920.00;;;;;;4948937;29;19907;-85
2023/02/13 13:00:49;;;;;;;31.17;22.30;;;333.20;1945.60;;;;;;4947666;29;20035;-82
2023/02/13 13:03:15;;;;;;;36.67;25.92;;;333.10;1920.00;;;;;;4948186;29;20055;-78
2023/02/13 13:05:44;;;;;;;39.53;25.77;;;333.50;1945.60;;;;;;4955297;28;20478;-78
2023/02/13 13:08:09;;;;;;;24.90;18.35;;;333.50;1894.40;;;;;;4958302;28;20038;-80
2023/02/13 13:10:42;;;;;;;25.50;18.08;;;333.70;1920.00;;;;;;4962834;28;20018;-80
2023/02/13 13:13:35;;;;;;;26.48;20.67;;;;;;;;;;4968342;28;20109;-80
2023/02/13 13:16:01;;;;;;;25.83;18.40;;;;;;;;;;4957020;29;20036;-81
2023/02/13 13:18:33;;;;;;;37.60;24.08;;;;;;;;;;4943332;29;20031;-81
2023/02/13 13:21:26;;;;;;;46.33;35.20;;;;;;;;;;4961802;28;20557;-80
2023/02/13 13:24:01;;;;;;;42.85;28.58;;;;;;;;;;4959993;28;20031;-81
2023/02/13 13:26:35;;;;;;;25.70;18.10;;;;;;;;;;4968764;28;20168;-81
2023/02/13 13:29:05;;;;;;;30.65;22.80;;;;;;;;;;4974285;28;20057;-81
2023/02/13 13:31:42;;;;;;;23.67;18.42;;;;;;;;;;4968764;28;20026;-83
2023/02/13 13:37:48;;;;;;;42.33;25.27;;;;;;;;;;4992030;28;20045;-83
2023/02/13 13:40:26;;;;;;;31.02;22.45;;;;;;;;;;4985317;28;20027;-80
2023/02/13 13:43:11;;;;;;;47.33;30.70;;;;;;;;;;4977558;28;20027;-80
2023/02/13 13:45:56;;;;;;;62.83;37.92;;;;;;;;;;4976272;28;20063;-80
2023/02/13 13:48:42;;;;;;;53.40;32.05;;;;;;;;;;4980919;28;20035;-79
2023/02/13 13:51:09;;;;;;;22.88;16.25;;;;;;;;;;4965567;28;20034;-79
2023/02/13 13:53:37;;;;;;;18.75;13.15;;;358.50;1868.80;;;;;;4967246;28;20058;-79
2023/02/13 13:56:06;;;;;;;24.17;17.70;;;;;;;;;;4965167;28;20027;-79
2023/02/13 13:58:34;;;;;;;35.55;23.75;;;;;;;;;;4964993;28;20082;-82
2023/02/13 14:01:22;;;;;;;33.47;21.02;;;;;;;;;;4961635;29;20031;-80
2023/02/13 14:04:02;;;;;;;37.53;24.00;;;;;;;;;;4947897;28;20030;-79
2023/02/13 14:06:44;;;;;;;29.67;20.70;;;;;;;;;;4980987;28;20022;-80
2023/02/13 14:09:39;;;;;;;38.15;27.27;;;;;;;;;;4981167;28;20023;-80
2023/02/13 14:12:24;;;;;;;32.88;21.58;;;;;;;;;;4934212;29;20059;-80
2023/02/13 14:14:51;;;;;;;60.88;39.67;;;;;;;;;;4952032;29;20031;-80
2023/02/13 14:17:37;;;;;;;32.75;21.30;;;;;;;;;;4970191;28;20030;-80
2023/02/13 14:20:16;;;;;;;29.58;20.05;;;;;;;;;;4981648;28;20027;-81
2023/02/13 14:22:43;;;;;;;26.25;17.30;;;333.10;1894.40;;;;;;4976925;28;20031;-79
2023/02/13 14:25:21;;;;;;;21.83;16.58;;;332.80;1894.40;;;;;;4965856;28;20458;-80
2023/02/13 14:27:56;;;;;;;38.17;24.98;;;308.00;1894.40;;;;;;4978644;28;20051;-81
2023/02/13 14:30:38;;;;;;;31.60;20.05;;;307.60;1920.00;;;;;;4981632;28;20065;-81
2023/02/13 14:33:07;;;;;;;25.23;18.60;;;282.40;1920.00;;;;;;4976966;28;20022;-83
2023/02/13 14:35:36;;;;;;;45.67;28.70;;;282.20;1971.20;;;;;;4978533;28;20050;-80
2023/02/13 14:38:16;;;;;;;27.77;17.15;;;282.00;1971.20;;;;;;4951723;28;20053;-80
2023/02/13 14:40:49;;;;;;;19.15;13.40;;;281.90;1945.60;;;;;;4979997;28;20094;-79
2023/02/13 14:43:48;;;;;;;35.28;27.05;;;281.70;1971.20;;;;;;4964646;28;20030;-81
2023/02/13 14:46:44;;;;;;;24.60;20.02;;;256.90;1971.20;;;;;;4972553;28;20053;-83
2023/02/13 14:50:15;;;;;;;62.20;42.42;;;256.70;1996.80;;;;;;4993733;28;20023;-82
2023/02/13 14:53:57;;;;;;;33.55;23.38;;;256.50;1996.80;;;;;;4996058;28;20105;-84
2023/02/13 14:57:26;;;;;;;45.33;28.20;;;256.40;1996.80;;;;;;4912711;29;20064;-86
2023/02/13 15:02:59;;;;;;;33.10;23.10;;;256.20;2048.00;;;;;;4939852;29;20191;-83
2023/02/13 15:05:34;;;;;;;35.75;26.77;;;256.20;2048.00;;;;;;4939444;29;20039;-85
2023/02/13 15:08:18;;;;;;;44.58;33.40;;;256.00;2073.60;;;;;;4950568;29;20032;-82
2023/02/13 15:10:49;;;;;;;65.47;45.20;;;256.00;2073.60;;;;;;4947605;29;20126;-82
2023/02/13 15:13:21;;;;;;;81.57;52.65;;;231.30;2099.20;;;;;;4947827;29;20550;-82
2023/02/13 15:15:51;;;;;;;66.03;46.92;;;231.30;2099.20;;;;;;4949323;29;20082;-82
2023/02/13 15:18:22;;;;;;;55.83;40.50;;;231.30;2099.20;;;;;;4949670;29;20074;-81
2023/02/13 15:20:49;;;;;;;57.55;37.83;;;231.20;2124.80;;;;;;4935681;29;20036;-81
2023/02/13 15:23:23;;;;;;;41.38;30.58;;;231.10;2124.80;;;;;;4911179;29;20028;-82
2023/02/13 15:26:05;;;;;;;49.42;33.25;;;231.00;2150.40;;;;;;4948655;28;20027;-81
2023/02/13 15:28:33;;;;;;;60.92;40.33;;;231.00;2176.00;;;;;;4981099;28;20093;-81
2023/02/13 15:31:21;;;;;;;65.30;42.88;;;230.90;2176.00;;;;;;4970366;28;20030;-80
2023/02/13 15:33:48;;;;;;;65.18;42.95;;;;;;;;;;4984932;28;20547;-81
2023/02/13 15:36:20;;;;;;;73.47;44.35;;;;;;;;;;4987093;28;20054;-80
2023/02/13 15:38:46;;;;;;;73.22;45.60;;;;;;;;;;4979570;28;20019;-81
2023/02/13 15:41:17;;;;;;;79.53;52.60;;;;;;;;;;4968545;28;20033;-80
2023/02/13 15:43:44;;;;;;;79.50;53.10;;;;;;;;;;4967603;28;20031;-80
2023/02/13 15:46:25;;;;;;;65.25;46.13;;;;;;;;;;4970224;28;20027;-81
2023/02/13 15:48:53;;;;;;;62.80;43.33;;;;;;;;;;4985196;28;20030;-81
2023/02/13 15:51:23;;;;;;;64.63;47.25;;;;;;;;;;4973764;28;20037;-80
2023/02/13 15:53:53;;;;;;;61.47;46.10;;;;;;;;;;4984931;28;20034;-81
2023/02/13 15:56:20;;;;;;;67.80;49.40;;;;;;;;;;4981283;28;20021;-81
2023/02/13 15:58:46;;;;;;;71.35;53.50;;;;;;;;;;4969132;28;20027;-81
2023/02/13 16:01:12;;;;;;;129.05;84.07;;;;;;;;;;4983248;28;20023;-81
2023/02/13 16:03:40;;;;;;;94.70;61.80;;;;;;;;;;4977223;28;20033;-83
2023/02/13 16:06:07;;;;;;;83.78;57.70;;;;;;;;;;4972823;28;20469;-81
2023/02/13 16:08:42;;;;;;;95.38;62.00;;;;;;;;;;4976044;28;20039;-82
2023/02/13 16:11:27;;;;;;;90.03;58.05;;;;;;;;;;4992266;28;20034;-82
2023/02/13 16:13:58;;;;;;;75.00;48.35;;;205.00;2252.80;;;;;;4967975;28;20102;-81
2023/02/13 16:16:25;;;;;;;77.20;51.53;;;;;;;;;;4968893;28;20090;-81
2023/02/13 16:18:52;;;;;;;100.97;63.95;;;180.10;2252.80;;;;;;4974692;28;20023;-80
2023/02/13 16:21:24;;;;;;;80.88;54.70;;;180.10;2252.80;;;;;;4973316;28;20046;-80
2023/02/13 16:23:57;;;;;;;96.60;66.80;;;179.80;2252.80;;;;;;4969934;28;20490;-81
2023/02/13 16:26:24;;;;;;;71.63;48.17;;;179.70;2252.80;;;;;;4971964;28;20573;-82
2023/02/13 16:28:50;;;;;;;68.65;46.55;;;179.60;2252.80;;;;;;4975637;28;20026;-82
2023/02/13 16:31:16;;;;;;;64.13;43.25;;;179.50;2252.80;;;;;;4972427;28;20470;-81
2023/02/13 16:33:43;;;;;;;61.58;41.65;;;179.40;2252.80;;;;;;4966675;28;20094;-80
2023/02/13 16:36:09;;;;;;;62.10;41.35;;;179.20;2252.80;;;;;;4968635;28;20019;-81
2023/02/13 16:38:40;;;;;;;58.40;41.00;;;179.20;2252.80;;;;;;4973308;28;20033;-82
2023/02/13 16:41:31;;;;;;;58.90;42.42;;;179.20;2252.80;;;;;;4982157;28;20019;-80
2023/02/13 16:43:58;;;;;;;68.07;44.85;;;154.50;2252.80;;;;;;4982147;28;20113;-80
2023/02/13 16:46:38;;;;;;;62.97;42.95;;;154.40;2252.80;;;;;;4977728;28;20027;-80
2023/02/13 16:49:07;;;;;;;84.18;53.08;;;154.20;2252.80;;;;;;4976024;28;20076;-80
2023/02/13 16:51:47;;;;;;;90.68;59.80;;;154.10;2252.80;;;;;;4983398;28;20042;-80
2023/02/13 16:54:21;;;;;;;81.93;55.83;;;154.10;2252.80;;;;;;4985528;28;20031;-82
2023/02/13 16:56:53;;;;;;;90.63;59.05;;;154.00;2252.80;;;;;;4984392;28;20023;-81
2023/02/13 16:59:25;;;;;;;130.57;84.90;;;154.00;2252.80;;;;;;4985451;28;20352;-81
2023/02/13 17:02:16;;;;;;;131.70;83.85;;;153.90;2252.80;;;;;;4988588;28;20267;-81
2023/02/13 17:05:08;;;;;;;167.35;106.85;;;153.80;2252.80;;;;;;4979412;28;20038;-81
2023/02/13 17:07:49;;;;;;;168.48;106.15;;;153.70;2252.80;;;;;;4985421;28;20035;-80
2023/02/13 17:10:29;;;;;;;152.18;98.10;;;153.60;2252.80;;;;;;4989151;28;20027;-80
2023/02/13 17:13:00;;;;;;;217.27;135.93;;;128.90;2252.80;;;;;;4988181;28;20098;-80
2023/02/13 17:15:28;;;;;;;228.52;146.95;;;128.90;2252.80;;;;;;4988840;28;20030;-81
2023/02/13 17:17:54;;;;;;;244.35;151.52;;;128.80;2252.80;;;;;;4972713;28;20117;-79
2023/02/13 17:20:26;;;;;;;259.70;156.00;;;128.70;2252.80;;;;;;4971588;28;20117;-79
2023/02/13 17:23:06;;;;;;;203.07;125.70;;;128.80;2252.80;;;;;;4973893;28;20030;-83
2023/02/13 17:25:35;;;;;;;171.40;110.10;;;128.60;2252.80;;;;;;4981649;28;20138;-81
2023/02/13 17:28:25;;;;;;;178.05;110.03;;;128.60;2252.80;;;;;;4981398;28;20074;-83
2023/02/13 17:30:56;;;;;;;177.02;108.13;;;128.70;2252.80;;;;;;4994069;28;20478;-82
2023/02/13 17:33:33;;;;;;;151.18;95.82;;;128.60;2252.80;;;;;;4975682;28;20019;-82
2023/02/13 17:36:00;;;;;;;125.55;80.63;;;128.50;2252.80;;;;;;4983327;28;20022;-83
2023/02/13 17:38:39;;;;;;;205.27;135.60;;;128.40;2252.80;;;;;;4982557;28;20019;-83
2023/02/13 17:41:17;;;;;;;163.27;104.72;;;128.30;2252.80;;;;;;4976266;28;20070;-82
2023/02/13 17:43:44;;;;;;;169.55;111.13;;;128.20;2252.80;;;;;;4977780;28;20375;-81
2023/02/13 17:46:11;;;;;;;212.15;132.43;;;128.20;2252.80;;;;;;4978969;28;20026;-82
2023/02/13 17:48:54;;;;;;;220.70;134.65;;;128.20;2252.80;;;;;;4981116;28;20019;-86
2023/02/13 17:51:46;;;;;;;247.32;151.77;;;128.10;2252.80;;;;;;5177624;23;20082;-82
2023/02/13 17:54:17;;;;;;;250.38;154.48;;;128.20;2252.80;;;;;;4997629;28;20046;-82
2023/02/13 17:56:43;;;;;;;268.73;170.52;;;103.30;2227.20;;;;;;4994331;28;20019;-80
2023/02/13 17:59:09;;;;;;;225.48;150.80;;;103.30;2227.20;;;;;;4996221;28;20018;-82
2023/02/13 18:01:36;;;;;;;202.18;134.35;;;103.30;2227.20;;;;;;4983089;28;20034;-83
2023/02/13 18:04:03;;;;;;;207.93;136.48;;;128.00;2252.80;;;;;;5004627;28;20042;-84
2023/02/13 18:06:39;;;;;;;204.30;136.10;;;128.00;2252.80;;;;;;5002668;28;20094;-84
2023/02/13 18:09:27;;;;;;;222.52;143.30;;;103.30;2227.20;;;;;;5020799;28;20053;-83
2023/02/13 18:12:26;;;;;;;247.70;157.70;;;103.10;2227.20;;;;;;5015599;28;20025;-83
2023/02/13 18:14:56;;;;;;;248.35;151.45;;;103.00;2227.20;;;;;;5019388;28;20046;-82
2023/02/13 18:17:35;;;;;;;249.70;154.20;;;103.00;2227.20;;;;;;5019276;28;20014;-82
2023/02/13 18:20:13;;;;;;;216.02;139.10;;;103.00;2227.20;;;;;;5019079;28;20026;-84
2023/02/13 18:22:51;;;;;;;218.80;136.43;;;103.00;2227.20;;;;;;5019336;28;20085;-82
2023/02/13 18:25:28;;;;;;;204.68;128.20;;;103.00;2227.20;;;;;;5019666;28;20017;-83
2023/02/13 18:28:06;;;;;;;202.57;120.47;;;102.90;2227.20;;;;;;5019843;28;20089;-82
2023/02/13 18:30:41;;;;;;;154.25;98.22;;;103.30;2227.20;;;;;;4987295;28;20010;-83
2023/02/13 18:33:12;;;;;;;213.45;133.82;;;102.80;2227.20;;;;;;5001120;28;20023;-82
2023/02/13 18:36:24;;;;;;;185.57;119.75;;;102.90;2227.20;;;;;;5002263;28;20038;-82
2023/02/13 18:39:35;;;;;;;251.90;150.88;;;102.60;2227.20;;;;;;4956942;29;20054;-83
2023/02/13 18:42:02;;;;;;;278.23;166.02;;;102.60;2227.20;;;;;;4944096;29;20036;-82
2023/02/13 18:44:41;;;;;;;291.95;182.07;;;102.60;2227.20;;;;;;4928314;29;20023;-82
2023/02/13 18:47:08;;;;;;;257.45;158.38;;;102.70;2227.20;;;;;;4942820;29;20082;-83
2023/02/13 18:50:36;;;;;;;205.10;123.40;;;102.60;2227.20;;;;;;4946789;29;20081;-86
2023/02/13 18:56:41;;;;;;;216.80;129.77;;;102.50;2227.20;;;;;;4896076;29;20070;-83
2023/02/13 18:59:17;;;;;;;272.65;167.15;;;102.50;2227.20;;;;;;4902950;29;20057;-83
2023/02/13 19:01:47;;;;;;;405.40;237.63;;;77.70;2227.20;;;;;;4901377;29;20029;-82
2023/02/13 19:04:19;;;;;;;403.25;243.32;;;77.70;2227.20;;;;;;4892509;29;20101;-82
2023/02/13 19:06:59;;;;;;;417.88;265.98;;;77.70;2227.20;;;;;;4904684;29;20040;-81
2023/02/13 19:09:54;;;;;;;457.83;275.73;;;77.50;2227.20;;;;;;4941021;29;20032;-83
2023/02/13 19:12:26;;;;;;;449.15;280.23;;;77.60;2227.20;;;;;;4936604;29;20040;-83
2023/02/13 19:15:11;;;;;;;262.25;155.40;;;77.60;2227.20;;;;;;4958114;29;20056;-82
2023/02/13 19:17:44;;;;;;;198.82;118.55;;;102.70;2227.20;;;;;;4958151;29;20020;-82
2023/02/13 19:20:10;;;;;;;151.52;94.78;;;102.40;2227.20;;;;;;4957597;29;20032;-82